Time;durP1;ratioP1;P1;durP2;ratioP2;P2;SDS_P1;SDS_P2;PMS_P1;PMS_P2;Temp;Humidity;BMP_temperature;BMP_pressure;BME280_temperature;BME280_humidity;BME280_pressure;Samples;Min_cycle;Max_cycle;Signal;HPM_P1;HPM_P2
2023/02/25 00:01:22;;;;;;;24.38;4.47;;;;;;;4.49;100.00;100833.19;4948920;28;20062;-79
2023/02/25 00:03:52;;;;;;;19.10;4.43;;;;;;;4.48;100.00;100828.91;4966759;28;20073;-79
2023/02/25 00:06:18;;;;;;;19.95;4.63;;;;;;;4.43;100.00;100834.41;4968467;28;20038;-79
2023/02/25 00:08:45;;;;;;;29.05;5.15;;;;;;;4.40;100.00;100834.59;4947943;28;20031;-79
2023/02/25 00:11:13;;;;;;;28.33;5.70;;;;;;;4.37;100.00;100836.56;4955497;28;20121;-80
2023/02/25 00:13:40;;;;;;;25.77;3.97;;;;;;;4.37;100.00;100831.34;4934301;28;20483;-79
2023/02/25 00:16:08;;;;;;;32.00;6.20;;;;;;;4.35;100.00;100823.56;4937584;28;20462;-80
2023/02/25 00:18:34;;;;;;;23.13;4.75;;;;;;;4.29;100.00;100832.66;4940784;28;20466;-80
2023/02/25 00:21:04;;;;;;;30.17;6.05;;;;;;;4.23;100.00;100835.66;4956169;28;20031;-79
2023/02/25 00:23:30;;;;;;;26.58;6.07;;;;;;;4.16;100.00;100844.78;4958916;28;20046;-79
2023/02/25 00:26:01;;;;;;;35.03;6.15;;;;;;;4.18;100.00;100845.53;4932265;28;20221;-80
2023/02/25 00:28:27;;;;;;;26.20;4.57;;;;;;;4.13;100.00;100834.50;4951716;28;20053;-79
2023/02/25 00:30:53;;;;;;;32.75;5.00;;;;;;;4.13;100.00;100842.34;4967846;28;20407;-79
2023/02/25 00:33:19;;;;;;;24.50;5.78;;;;;;;4.13;100.00;100837.13;4932664;28;20035;-79
2023/02/25 00:35:45;;;;;;;29.52;5.80;;;;;;;4.09;100.00;100829.47;4952993;28;20047;-80
2023/02/25 00:38:11;;;;;;;21.00;4.88;;;;;;;3.99;100.00;100836.19;4968975;28;20022;-79
2023/02/25 00:40:38;;;;;;;23.80;4.35;;;;;;;3.95;100.00;100834.69;4938636;28;20035;-80
2023/02/25 00:43:04;;;;;;;25.92;5.53;;;;;;;3.90;100.00;100844.59;4951923;28;20031;-79
2023/02/25 00:45:30;;;;;;;20.85;5.65;;;;;;;3.82;100.00;100850.28;4936907;28;20034;-80
2023/02/25 00:47:57;;;;;;;22.33;5.10;;;;;;;3.75;100.00;100857.63;4948897;28;20381;-79
2023/02/25 00:50:22;;;;;;;25.00;5.07;;;;;;;3.67;100.00;100860.69;4948031;28;20096;-79
2023/02/25 00:52:48;;;;;;;28.15;6.22;;;;;;;3.56;100.00;100863.06;4968966;28;20026;-79
2023/02/25 00:55:14;;;;;;;23.65;5.18;;;;;;;3.43;100.00;100868.16;4931984;28;20035;-79
2023/02/25 00:57:42;;;;;;;34.63;4.95;;;;;;;3.38;100.00;100857.16;4971499;28;20029;-80
2023/02/25 01:00:14;;;;;;;28.52;5.30;;;;;;;3.43;100.00;100860.31;4950478;28;20047;-79
2023/02/25 01:02:44;;;;;;;25.77;6.45;;;;;;;3.43;100.00;100853.31;4964440;28;20050;-79
2023/02/25 01:05:13;;;;;;;24.75;5.43;;;;;;;3.44;100.00;100854.19;4952098;28;20792;-79
2023/02/25 01:07:41;;;;;;;33.00;6.22;;;;;;;3.45;100.00;100861.94;4942890;28;20031;-79
2023/02/25 01:10:09;;;;;;;25.95;6.22;;;;;;;3.47;100.00;100865.28;4946119;28;20041;-79
2023/02/25 01:12:35;;;;;;;23.90;5.93;;;;;;;3.52;100.00;100872.03;4938981;28;20027;-79
2023/02/25 01:15:03;;;;;;;28.30;5.78;;;;;;;3.58;100.00;100869.88;4955206;28;20057;-79
2023/02/25 01:17:29;;;;;;;26.75;5.72;;;;;;;3.64;100.00;100860.00;4946430;28;20035;-80
2023/02/25 01:19:56;;;;;;;33.20;6.00;;;;;;;3.66;100.00;100863.41;4942156;28;20046;-81
2023/02/25 01:22:23;;;;;;;23.85;5.90;;;;;;;3.66;100.00;100858.16;4972914;28;20031;-81
2023/02/25 01:24:48;;;;;;;17.70;6.10;;;;;;;3.54;100.00;100850.09;4886798;28;20058;-79
2023/02/25 01:27:14;;;;;;;29.17;6.32;;;;;;;3.32;100.00;100840.03;4960422;28;20058;-79
2023/02/25 01:29:42;;;;;;;29.73;6.65;;;;;;;3.14;100.00;100832.28;4949226;28;20038;-79
2023/02/25 01:32:12;;;;;;;24.83;5.55;;;;;;;3.05;100.00;100836.28;4970814;28;20035;-80
2023/02/25 01:34:39;;;;;;;25.95;5.47;;;;;;;3.00;100.00;100835.69;4965099;28;20027;-79
2023/02/25 01:37:07;;;;;;;22.02;5.70;;;;;;;3.02;100.00;100833.00;4950268;28;20035;-79
2023/02/25 01:39:39;;;;;;;23.15;6.22;;;;;;;3.11;100.00;100835.09;4950008;28;20389;-79
2023/02/25 01:42:12;;;;;;;27.35;7.15;;;;;;;3.17;100.00;100839.97;4943848;28;20123;-79
2023/02/25 01:45:14;;;;;;;25.25;5.50;;;;;;;3.26;100.00;100843.00;4945342;28;20054;-79
2023/02/25 01:47:40;;;;;;;22.48;5.07;;;;;;;3.30;100.00;100836.66;4958249;28;20051;-79
2023/02/25 01:50:06;;;;;;;27.85;6.20;;;;;;;3.33;100.00;100829.47;4952909;28;20042;-79
2023/02/25 01:52:32;;;;;;;25.92;6.47;;;;;;;3.40;100.00;100834.34;4945158;28;20038;-79
2023/02/25 01:54:58;;;;;;;27.50;5.75;;;;;;;3.30;100.00;100827.06;4968576;28;20114;-79
2023/02/25 01:57:25;;;;;;;21.17;6.53;;;;;;;3.08;100.00;100828.28;4948273;28;20087;-79
2023/02/25 01:59:53;;;;;;;20.48;5.82;;;;;;;2.95;100.00;100822.88;4954261;28;20058;-79
2023/02/25 02:02:21;;;;;;;28.10;6.20;;;;;;;2.90;100.00;100826.69;4929119;29;20043;-79
2023/02/25 02:04:50;;;;;;;39.10;9.05;;;;;;;2.94;100.00;100830.81;4942388;29;20035;-79
2023/02/25 02:07:20;;;;;;;29.38;7.43;;;;;;;2.99;100.00;100841.84;4921428;28;20031;-79
2023/02/25 02:09:55;;;;;;;29.23;6.60;;;;;;;3.06;100.00;100844.94;4957399;28;20026;-79
2023/02/25 02:12:31;;;;;;;27.95;6.53;;;;;;;3.14;100.00;100841.91;4940053;28;20039;-79
2023/02/25 02:15:01;;;;;;;19.85;5.60;;;;;;;3.20;100.00;100834.56;4950644;28;20147;-79
2023/02/25 02:17:27;;;;;;;30.75;5.93;;;;;;;3.24;100.00;100840.47;4950576;28;20176;-79
2023/02/25 02:20:10;;;;;;;26.27;5.68;;;;;;;3.23;100.00;100834.38;4951133;28;20475;-79
2023/02/25 02:22:50;;;;;;;25.73;6.97;;;;;;;3.15;100.00;100830.53;4956714;28;20035;-79
2023/02/25 02:25:31;;;;;;;22.33;4.88;;;;;;;2.99;100.00;100831.41;4950485;28;20086;-79
2023/02/25 02:28:23;;;;;;;21.55;6.03;;;;;;;2.82;100.00;100830.53;4960815;28;20487;-79
2023/02/25 02:31:22;;;;;;;25.08;5.85;;;;;;;2.74;100.00;100830.13;4950683;28;20158;-79
2023/02/25 02:33:58;;;;;;;21.63;6.13;;;;;;;2.73;100.00;100831.06;4944059;28;20488;-79
2023/02/25 02:36:51;;;;;;;23.33;5.68;;;;;;;2.79;100.00;100825.50;4915354;29;20064;-81
2023/02/25 02:39:26;;;;;;;21.55;5.32;;;;;;;2.85;100.00;100833.00;4925497;28;20040;-81
2023/02/25 02:42:04;;;;;;;22.87;6.37;;;;;;;2.87;100.00;100842.53;4952822;28;20027;-81
2023/02/25 02:44:38;;;;;;;18.35;4.63;;;;;;;2.90;100.00;100845.78;4931687;29;20040;-81
2023/02/25 02:47:14;;;;;;;17.90;4.95;;;;;;;2.80;100.00;100845.44;4943784;28;20075;-81
2023/02/25 02:49:59;;;;;;;22.25;5.20;;;;;;;2.75;100.00;100849.25;4885180;28;20038;-81
2023/02/25 02:52:31;;;;;;;24.05;4.25;;;;;;;2.73;100.00;100852.78;4939785;28;20114;-81
2023/02/25 02:55:29;;;;;;;17.67;4.75;;;;;;;2.79;100.00;100848.13;4934059;29;20090;-81
2023/02/25 02:58:06;;;;;;;19.80;4.57;;;;;;;2.85;100.00;100846.03;4954223;28;20039;-81
2023/02/25 03:00:41;;;;;;;26.48;6.35;;;;;;;2.82;100.00;100846.22;4937689;28;20579;-81
2023/02/25 03:03:17;;;;;;;20.80;5.32;;;;;;;2.78;100.00;100854.28;4957496;28;20404;-81
2023/02/25 03:05:47;;;;;;;17.33;4.15;;;;;;;2.75;100.00;100857.94;4940837;28;20046;-81
2023/02/25 03:08:19;;;;;;;27.40;4.82;;;;;;;2.79;100.00;100866.41;4943669;28;20031;-81
2023/02/25 03:10:46;;;;;;;25.05;4.18;;;;;;;2.81;100.00;100868.03;4947779;28;20039;-80
2023/02/25 03:13:12;;;;;;;22.45;4.72;;;;;;;2.90;100.00;100869.28;4948425;28;20594;-80
2023/02/25 03:15:40;;;;;;;20.15;4.32;;;;;;;2.90;100.00;100878.91;4951299;28;20082;-80
2023/02/25 03:18:17;;;;;;;19.17;4.45;;;;;;;2.71;100.00;100883.34;4952420;28;20032;-80
2023/02/25 03:20:48;;;;;;;20.10;4.70;;;;;;;2.63;100.00;100880.28;4946001;28;20038;-79
2023/02/25 03:23:19;;;;;;;20.80;5.07;;;;;;;2.70;100.00;100883.44;4970867;28;20043;-79
2023/02/25 03:25:50;;;;;;;21.25;4.95;;;;;;;2.77;100.00;100879.53;4917411;28;20372;-81
2023/02/25 03:28:48;;;;;;;24.80;6.68;;;;;;;2.85;100.00;100879.97;4939309;28;20028;-80
2023/02/25 03:31:33;;;;;;;26.88;4.63;;;;;;;2.89;100.00;100883.28;4924812;28;20459;-81
2023/02/25 03:34:02;;;;;;;27.70;4.22;;;;;;;2.79;100.00;100869.88;4946934;28;20139;-81
2023/02/25 03:36:33;;;;;;;20.58;4.72;;;;;;;2.67;100.00;100876.63;4925003;29;20471;-82
2023/02/25 03:39:08;;;;;;;21.83;4.63;;;;;;;2.57;100.00;100876.25;4951646;28;20075;-81
2023/02/25 03:41:41;;;;;;;17.17;4.63;;;;;;;2.59;100.00;100878.78;4932201;28;20558;-81
2023/02/25 03:44:12;;;;;;;20.63;4.75;;;;;;;2.69;100.00;100881.75;4921274;29;20533;-81
2023/02/25 03:46:41;;;;;;;20.05;4.00;;;;;;;2.79;100.00;100897.75;4951988;28;20039;-81
2023/02/25 03:49:11;;;;;;;27.65;4.65;;;;;;;2.85;100.00;100903.47;4931091;29;20046;-81
2023/02/25 03:51:40;;;;;;;17.50;4.03;;;;;;;2.84;100.00;100893.97;4947571;28;20106;-81
2023/02/25 03:54:06;;;;;;;19.38;3.97;;;;;;;2.89;100.00;100882.44;4934940;29;20035;-80
2023/02/25 03:56:48;;;;;;;27.55;5.63;;;;;;;3.01;100.00;100879.13;4948949;28;20069;-80
2023/02/25 03:59:17;;;;;;;27.83;5.18;;;;;;;2.96;100.00;100883.78;4930349;28;20058;-79
2023/02/25 04:01:47;;;;;;;15.27;5.78;;;;;;;2.90;100.00;100881.53;4951509;28;20041;-79
2023/02/25 04:04:13;;;;;;;22.00;4.20;;;;;;;2.88;100.00;100883.38;4948908;28;20059;-79
2023/02/25 04:06:39;;;;;;;23.50;5.07;;;;;;;2.91;100.00;100889.28;4927417;29;20059;-79
2023/02/25 04:09:05;;;;;;;19.35;3.97;;;;;;;2.95;100.00;100884.69;4943238;28;20058;-79
2023/02/25 04:11:31;;;;;;;14.73;3.47;;;;;;;3.01;100.00;100881.75;4954895;28;20039;-79
2023/02/25 04:13:57;;;;;;;19.73;4.00;;;;;;;3.09;100.00;100881.38;4933695;29;20039;-79
2023/02/25 04:16:23;;;;;;;22.15;4.78;;;;;;;3.15;100.00;100878.41;4940452;28;20526;-79
2023/02/25 04:18:49;;;;;;;21.67;3.80;;;;;;;3.26;100.00;100883.03;4946704;28;20031;-79
2023/02/25 04:21:27;;;;;;;19.95;3.90;;;;;;;3.27;100.00;100889.06;4933669;28;20035;-79
2023/02/25 04:23:53;;;;;;;24.65;3.70;;;;;;;3.14;100.00;100876.69;4930183;29;20126;-81
2023/02/25 04:26:19;;;;;;;26.17;4.90;;;;;;;3.06;100.00;100884.97;4946021;28;20522;-81
2023/02/25 04:28:44;;;;;;;19.73;5.10;;;;;;;3.01;100.00;100880.94;4952036;28;20043;-80
2023/02/25 04:31:10;;;;;;;17.15;3.90;;;;;;;2.96;100.00;100889.84;4951370;28;20038;-81
2023/02/25 04:33:36;;;;;;;20.52;3.95;;;;;;;2.93;100.00;100895.22;4930618;28;20126;-81
2023/02/25 04:36:01;;;;;;;15.82;3.67;;;;;;;2.92;100.00;100890.09;4947774;28;20047;-81
2023/02/25 04:38:27;;;;;;;22.92;3.58;;;;;;;2.87;100.00;100892.97;4945655;28;20080;-81
2023/02/25 04:40:53;;;;;;;21.90;4.03;;;;;;;2.83;100.00;100889.69;4949824;28;20054;-81
2023/02/25 04:43:19;;;;;;;18.80;4.30;;;;;;;2.78;100.00;100893.47;4951550;28;20110;-81
2023/02/25 04:45:45;;;;;;;26.90;4.03;;;;;;;2.78;100.00;100894.31;4949839;28;20031;-81
2023/02/25 04:48:11;;;;;;;21.35;5.35;;;;;;;2.80;100.00;100894.22;4947258;28;20027;-81
2023/02/25 04:50:36;;;;;;;27.05;4.28;;;;;;;2.82;100.00;100901.03;4944741;28;20043;-81
2023/02/25 04:53:02;;;;;;;21.92;5.03;;;;;;;2.86;100.00;100906.94;4951843;28;20066;-81
2023/02/25 04:55:29;;;;;;;19.23;3.55;;;;;;;2.87;100.00;100913.84;4932552;28;20110;-81
2023/02/25 04:57:55;;;;;;;17.42;3.58;;;;;;;2.91;100.00;100911.91;4943440;28;20491;-81
2023/02/25 05:00:28;;;;;;;17.85;3.38;;;;;;;2.94;100.00;100906.53;4965719;28;20062;-81
2023/02/25 05:02:55;;;;;;;19.17;4.00;;;;;;;2.96;100.00;100902.91;4952733;28;20078;-80
2023/02/25 05:05:21;;;;;;;23.85;4.00;;;;;;;2.93;100.00;100904.84;4952594;28;20049;-79
2023/02/25 05:07:47;;;;;;;19.95;3.30;;;;;;;2.85;100.00;100919.16;4935137;28;20472;-79
2023/02/25 05:10:13;;;;;;;14.15;3.67;;;;;;;2.79;100.00;100913.41;4927365;28;20031;-78
2023/02/25 05:12:39;;;;;;;29.05;3.88;;;;;;;2.82;100.00;100913.28;4945566;28;20504;-79
2023/02/25 05:15:07;;;;;;;18.10;3.60;;;;;;;2.83;100.00;100915.81;4949401;28;20071;-79
2023/02/25 05:17:33;;;;;;;24.63;4.22;;;;;;;2.87;100.00;100920.84;4933687;28;20439;-79
2023/02/25 05:19:59;;;;;;;19.50;3.60;;;;;;;2.87;100.00;100924.28;4950443;28;20075;-79
2023/02/25 05:22:26;;;;;;;23.88;3.75;;;;;;;2.93;100.00;100930.97;4948748;28;20035;-79
2023/02/25 05:24:52;;;;;;;21.92;3.53;;;;;;;2.97;100.00;100922.88;4956444;28;20510;-79
2023/02/25 05:27:18;;;;;;;16.05;3.33;;;;;;;2.98;100.00;100931.53;4946644;28;20035;-79
2023/02/25 05:29:44;;;;;;;24.10;4.13;;;;;;;3.04;100.00;100925.16;4948483;28;20369;-79
2023/02/25 05:32:09;;;;;;;21.83;3.67;;;;;;;3.07;100.00;100927.59;4953858;28;20901;-79
2023/02/25 05:34:35;;;;;;;20.60;2.97;;;;;;;3.11;100.00;100929.13;4955809;28;20035;-79
2023/02/25 05:37:02;;;;;;;23.70;4.50;;;;;;;3.12;100.00;100925.59;4956660;28;20036;-79
2023/02/25 05:39:27;;;;;;;28.23;3.67;;;;;;;3.18;100.00;100929.63;4949903;28;20103;-79
2023/02/25 05:41:53;;;;;;;21.05;3.45;;;;;;;3.19;100.00;100934.78;4962218;28;20088;-79
2023/02/25 05:44:19;;;;;;;17.60;3.75;;;;;;;3.20;100.00;100920.78;4953388;28;20035;-79
2023/02/25 05:46:45;;;;;;;17.70;3.17;;;;;;;3.23;100.00;100935.44;4958086;28;20066;-78
2023/02/25 05:49:11;;;;;;;26.05;3.60;;;;;;;3.21;100.00;100932.06;4959858;28;20042;-79
2023/02/25 05:51:36;;;;;;;17.67;3.65;;;;;;;3.22;100.00;100942.44;4962958;28;20039;-79
2023/02/25 05:54:02;;;;;;;19.13;4.25;;;;;;;3.20;100.00;100941.66;4959262;28;20080;-79
2023/02/25 05:56:28;;;;;;;17.98;4.15;;;;;;;3.17;100.00;100947.06;4960507;28;20032;-79
2023/02/25 05:58:54;;;;;;;22.15;5.10;;;;;;;3.16;100.00;100948.00;4959354;28;20055;-79
2023/02/25 06:01:26;;;;;;;21.40;4.72;;;;;;;3.15;100.00;100946.31;4979823;28;20558;-79
2023/02/25 06:03:52;;;;;;;29.00;4.63;;;;;;;3.10;100.00;100937.88;4948945;28;20394;-79
2023/02/25 06:06:23;;;;;;;19.27;5.13;;;;;;;3.10;100.00;100949.19;4959180;28;20038;-81
2023/02/25 06:08:49;;;;;;;14.20;4.40;;;;;;;3.06;100.00;100947.66;4978318;28;20395;-79
2023/02/25 06:11:21;;;;;;;22.17;5.88;;;;;;;3.07;100.00;100946.72;4972620;28;20041;-79
2023/02/25 06:13:48;;;;;;;22.73;4.53;;;;;;;3.03;100.00;100945.19;4966008;28;20031;-79
2023/02/25 06:16:15;;;;;;;24.20;4.63;;;;;;;3.05;100.00;100951.19;4977599;28;20031;-79
2023/02/25 06:18:42;;;;;;;25.55;4.78;;;;;;;3.02;100.00;100950.50;4972386;28;20033;-79
2023/02/25 06:21:11;;;;;;;21.13;4.82;;;;;;;3.02;100.00;100953.13;4936590;28;20038;-79
2023/02/25 06:23:38;;;;;;;17.30;4.65;;;;;;;2.98;100.00;100953.28;4977719;28;20398;-78
2023/02/25 06:26:06;;;;;;;18.35;5.63;;;;;;;2.93;100.00;100947.47;4957486;28;20289;-79
2023/02/25 06:28:33;;;;;;;20.90;5.70;;;;;;;2.91;100.00;100959.78;4969090;28;20038;-79
2023/02/25 06:30:59;;;;;;;23.20;5.55;;;;;;;2.89;100.00;100960.75;4974059;28;20051;-79
2023/02/25 06:33:24;;;;;;;21.23;5.70;;;;;;;2.85;100.00;100953.09;4971888;28;20135;-79
2023/02/25 06:35:53;;;;;;;18.38;5.53;;;;;;;2.87;100.00;100954.81;4963601;28;20048;-79
2023/02/25 06:38:18;;;;;;;25.45;5.90;;;;;;;2.82;100.00;100955.88;4979199;28;20034;-79
2023/02/25 06:40:45;;;;;;;29.70;5.50;;;;;;;2.81;100.00;100954.19;4949853;28;20124;-79
2023/02/25 06:43:11;;;;;;;25.42;6.05;;;;;;;2.77;100.00;100949.22;4952556;28;20026;-79
2023/02/25 06:45:36;;;;;;;23.25;6.20;;;;;;;2.71;100.00;100961.66;4970119;28;20038;-79
2023/02/25 06:48:02;;;;;;;18.35;5.88;;;;;;;2.68;100.00;100960.97;4951543;28;20095;-79
2023/02/25 06:50:28;;;;;;;29.17;5.43;;;;;;;2.65;100.00;100959.38;4920261;28;20113;-79
2023/02/25 06:52:56;;;;;;;19.30;5.88;;;;;;;2.65;100.00;100958.50;4969771;28;20454;-79
2023/02/25 06:55:21;;;;;;;22.05;7.57;;;;;;;2.64;100.00;100956.84;4977110;28;20034;-78
2023/02/25 06:57:47;;;;;;;30.35;7.25;;;;;;;2.65;100.00;100968.97;4969812;28;20383;-79
2023/02/25 07:00:13;;;;;;;17.55;6.07;;;;;;;2.59;100.00;100970.97;4950830;28;20051;-79
2023/02/25 07:02:39;;;;;;;21.90;6.28;;;;;;;2.56;100.00;100971.13;4970536;28;20039;-79
2023/02/25 07:05:05;;;;;;;25.60;7.10;;;;;;;2.58;100.00;100976.28;4967564;28;20083;-79
2023/02/25 07:07:31;;;;;;;28.70;7.93;;;;;;;2.54;100.00;100982.56;4945630;28;20089;-79
2023/02/25 07:09:57;;;;;;;20.15;7.72;;;;;;;2.59;100.00;100985.78;4939101;28;20034;-79
2023/02/25 07:12:23;;;;;;;31.13;8.18;;;;;;;2.63;100.00;100984.69;4955446;28;20045;-79
2023/02/25 07:14:49;;;;;;;28.75;6.97;;;;;;;2.68;100.00;100987.91;4971111;28;20553;-79
2023/02/25 07:17:15;;;;;;;31.85;7.70;;;;;;;2.67;100.00;100994.06;4970743;28;20041;-79
2023/02/25 07:19:40;;;;;;;34.67;7.97;;;;;;;2.66;100.00;101002.81;4952406;28;20035;-79
2023/02/25 07:22:08;;;;;;;24.15;8.23;;;;;;;2.71;100.00;100999.97;4968810;28;21935;-79
2023/02/25 07:24:34;;;;;;;22.58;7.35;;;;;;;2.75;100.00;100995.44;4958728;28;20046;-79
2023/02/25 07:27:01;;;;;;;31.25;7.00;;;;;;;2.73;100.00;100996.38;4971930;28;21864;-79
2023/02/25 07:29:26;;;;;;;30.10;7.38;;;;;;;2.75;100.00;100998.03;4961896;28;20030;-79
2023/02/25 07:31:52;;;;;;;30.98;8.20;;;;;;;2.77;100.00;101004.03;4956194;28;20105;-79
2023/02/25 07:34:18;;;;;;;24.35;9.13;;;;;;;2.78;100.00;101009.19;4939829;28;21360;-79
2023/02/25 07:36:43;;;;;;;28.60;7.13;;;;;;;2.80;100.00;101016.94;4952066;28;20062;-79
2023/02/25 07:39:11;;;;;;;20.40;7.18;;;;;;;2.87;100.00;101015.69;4956084;28;20054;-78
2023/02/25 07:41:37;;;;;;;29.88;7.88;;;;;;;2.83;100.00;101024.59;4974168;28;20041;-79
2023/02/25 07:44:05;;;;;;;20.02;6.53;;;;;;;2.75;100.00;101019.78;4955258;28;20392;-79
2023/02/25 07:46:31;;;;;;;18.50;6.30;;;;;;;2.77;100.00;101027.53;4935908;28;20039;-79
2023/02/25 07:48:57;;;;;;;16.33;5.70;;;;;;;2.72;100.00;101027.78;4970932;28;20400;-79
2023/02/25 07:51:24;;;;;;;18.15;6.03;;;;;;;2.77;100.00;101033.56;4956075;28;20030;-81
2023/02/25 07:53:52;;;;;;;16.02;5.03;;;;;;;2.75;100.00;101032.84;4948825;28;20447;-80
2023/02/25 07:56:19;;;;;;;17.60;4.35;;;;;;;2.73;100.00;101037.28;4927860;28;20082;-81
2023/02/25 07:58:45;;;;;;;22.20;5.75;;;;;;;2.77;100.00;101041.41;4953407;28;20046;-81
2023/02/25 08:01:30;;;;;;;21.27;6.25;;;;;;;2.90;100.00;101041.63;4955673;28;20082;-81
2023/02/25 08:03:58;;;;;;;25.17;6.63;;;;;;;2.85;100.00;101044.47;4955177;28;20085;-81
2023/02/25 08:06:26;;;;;;;18.95;5.97;;;;;;;2.94;100.00;101045.78;4951974;28;20035;-81
2023/02/25 08:08:54;;;;;;;24.45;6.45;;;;;;;2.96;100.00;101049.13;4948918;28;20034;-81
2023/02/25 08:11:21;;;;;;;16.67;5.47;;;;;;;2.97;100.00;101047.38;4958619;28;20055;-81
2023/02/25 08:13:47;;;;;;;28.52;5.90;;;;;;;3.01;100.00;101053.31;4958388;28;20189;-81
2023/02/25 08:16:16;;;;;;;20.77;6.00;;;;;;;2.98;100.00;101055.13;4966530;28;20483;-79
2023/02/25 08:18:42;;;;;;;19.08;5.50;;;;;;;3.00;100.00;101062.03;4975620;28;20149;-79
2023/02/25 08:21:13;;;;;;;18.88;5.40;;;;;;;2.99;100.00;101063.81;4923633;28;20038;-80
2023/02/25 08:23:39;;;;;;;24.23;5.57;;;;;;;2.94;100.00;101060.59;4956627;28;20128;-81
2023/02/25 08:26:06;;;;;;;14.18;4.28;;;;;;;2.98;100.00;101068.19;4934395;28;20038;-79
2023/02/25 08:28:32;;;;;;;21.83;7.43;;;;;;;3.00;100.00;101072.47;4954030;28;20502;-79
2023/02/25 08:30:58;;;;;;;25.95;6.72;;;;;;;3.01;100.00;101069.78;4965656;28;20498;-78
2023/02/25 08:33:25;;;;;;;14.27;5.97;;;;;;;3.04;100.00;101071.41;4954816;28;20071;-79
2023/02/25 08:35:51;;;;;;;23.60;6.93;;;;;;;3.06;100.00;101066.94;4955697;28;20030;-79
2023/02/25 08:38:17;;;;;;;19.75;6.32;;;;;;;3.05;100.00;101063.50;4956146;28;20114;-79
2023/02/25 08:40:43;;;;;;;15.25;5.88;;;;;;;3.07;100.00;101064.25;4972954;28;20067;-79
2023/02/25 08:43:10;;;;;;;29.27;8.68;;;;;;;3.13;100.00;101067.47;4934582;28;20047;-79
2023/02/25 08:45:37;;;;;;;25.52;7.10;;;;;;;3.15;100.00;101069.09;4971086;28;20048;-79
2023/02/25 08:48:03;;;;;;;28.25;7.55;;;;;;;3.17;100.00;101069.03;4945347;28;20050;-79
2023/02/25 08:50:29;;;;;;;20.48;6.78;;;;;;;3.23;100.00;101073.91;4954050;28;20404;-79
2023/02/25 08:52:56;;;;;;;25.10;7.07;;;;;;;3.23;100.00;101069.53;4966551;28;20030;-79
2023/02/25 08:55:23;;;;;;;21.17;6.95;;;;;;;3.26;100.00;101078.13;4956701;28;20125;-78
2023/02/25 08:57:52;;;;;;;19.25;6.40;;;;;;;3.31;100.00;101070.91;4966948;28;20053;-79
2023/02/25 09:00:20;;;;;;;22.02;6.72;;;;;;;3.33;100.00;101075.09;4971289;28;20392;-79
2023/02/25 09:02:46;;;;;;;17.08;5.50;;;;;;;3.28;100.00;101071.88;4953817;28;20448;-79
2023/02/25 09:05:12;;;;;;;21.15;6.00;;;;;;;3.28;100.00;101084.94;4964959;28;20066;-79
2023/02/25 09:07:38;;;;;;;17.15;7.45;;;;;;;3.32;100.00;101072.56;4952482;28;20105;-79
2023/02/25 09:10:06;;;;;;;18.05;6.20;;;;;;;3.34;100.00;101070.72;4968650;28;20045;-79
2023/02/25 09:12:32;;;;;;;20.35;6.32;;;;;;;3.42;100.00;101071.19;4954737;28;20058;-79
2023/02/25 09:14:58;;;;;;;19.17;5.57;;;;;;;3.51;100.00;101048.06;4940743;28;20035;-79
2023/02/25 09:17:23;;;;;;;21.63;6.13;;;;;;;3.51;100.00;101058.53;4961057;28;20034;-79
2023/02/25 09:19:49;;;;;;;19.70;6.45;;;;;;;3.56;100.00;101059.13;4969761;28;20027;-79
2023/02/25 09:22:15;;;;;;;18.10;5.57;;;;;;;3.61;100.00;101064.94;4944357;28;20043;-79
2023/02/25 09:24:41;;;;;;;18.92;7.32;;;;;;;3.64;100.00;101071.78;4937953;28;20066;-79
2023/02/25 09:27:06;;;;;;;22.35;6.35;;;;;;;3.70;100.00;101074.91;4967854;28;20089;-79
2023/02/25 09:29:38;;;;;;;25.58;7.32;;;;;;;3.77;100.00;101080.66;4952929;28;20092;-79
2023/02/25 09:32:05;;;;;;;18.70;4.68;;;;;;;3.78;100.00;101078.84;4954855;28;20061;-79
2023/02/25 09:34:34;;;;;;;12.68;3.95;;;;;;;3.79;100.00;101088.41;4939133;28;20031;-79
2023/02/25 09:37:02;;;;;;;17.52;5.57;;;;;;;3.83;100.00;101087.31;4944614;28;20035;-79
2023/02/25 09:39:28;;;;;;;13.40;4.30;;;;;;;3.89;100.00;101096.56;4951759;28;20106;-79
2023/02/25 09:42:08;;;;;;;16.60;5.00;;;;;;;3.99;100.00;101086.44;4971521;28;20097;-79
2023/02/25 09:44:49;;;;;;;15.20;3.30;;;;;;;4.10;100.00;101091.94;4961770;28;20069;-79
2023/02/25 09:47:41;;;;;;;13.02;3.80;;;;;;;4.17;100.00;101088.03;4953686;28;20108;-79
2023/02/25 09:50:22;;;;;;;18.95;4.80;;;;;;;4.25;100.00;101084.16;4959362;28;20105;-79
2023/02/25 09:53:17;;;;;;;16.75;3.33;;;;;;;4.30;100.00;101085.56;4971298;28;20031;-79
2023/02/25 09:55:48;;;;;;;9.88;3.03;;;;;;;4.28;100.00;101079.59;4968751;28;20120;-79
2023/02/25 09:58:45;;;;;;;15.07;4.03;;;;;;;4.26;100.00;101080.59;4949116;28;20057;-79
2023/02/25 10:01:39;;;;;;;13.77;3.28;;;;;;;4.29;100.00;101081.28;4923417;29;20564;-79
2023/02/25 10:04:13;;;;;;;8.18;2.63;;;;;;;4.34;100.00;101075.78;4930563;29;20400;-78
2023/02/25 10:06:47;;;;;;;14.68;3.17;;;;;;;4.38;100.00;101076.44;4926303;29;20039;-79
2023/02/25 10:10:02;;;;;;;17.70;3.55;;;;;;;4.23;100.00;101068.53;4908807;29;20544;-79
2023/02/25 10:12:55;;;;;;;13.68;3.67;;;;;;;4.30;100.00;101074.28;4868204;29;20113;-79
2023/02/25 10:15:43;;;;;;;14.18;3.75;;;;;;;4.22;100.00;101069.47;4923707;29;20054;-79
2023/02/25 10:18:24;;;;;;;17.52;3.60;;;;;;;4.25;100.00;101079.78;4929628;29;20040;-79
2023/02/25 10:21:21;;;;;;;14.02;3.67;;;;;;;4.30;100.00;101079.50;4936668;29;20091;-79
2023/02/25 10:24:16;;;;;;;;;;;;;;;4.25;100.00;101077.16;4924836;29;20032;-79
2023/02/25 10:26:48;;;;;;;19.55;3.85;;;;;;;4.38;100.00;101081.69;4921540;29;19915;-79
2023/02/25 10:29:38;;;;;;;14.77;3.30;;;;;;;4.59;100.00;101079.59;4933642;29;20431;-79
2023/02/25 10:32:25;;;;;;;10.82;2.92;;;;;;;4.77;100.00;101087.28;4926908;29;20034;-79
2023/02/25 10:34:58;;;;;;;9.63;3.35;;;;;;;4.92;100.00;101096.84;4931013;29;20115;-78
2023/02/25 10:37:31;;;;;;;9.30;2.60;;;;;;;5.00;100.00;101085.91;4927429;29;20564;-79
2023/02/25 10:40:00;;;;;;;8.70;2.95;;;;;;;5.05;100.00;101081.25;4929172;29;20138;-79
2023/02/25 10:42:26;;;;;;;9.95;2.60;;;;;;;5.06;100.00;101089.97;4928497;29;20404;-78
2023/02/25 10:44:54;;;;;;;17.17;3.05;;;;;;;5.27;100.00;101087.81;4911618;29;20035;-79
2023/02/25 10:47:29;;;;;;;9.27;2.85;;;;;;;5.42;100.00;101086.03;4927722;29;20027;-78
2023/02/25 10:50:14;;;;;;;15.40;2.53;;;;;;;5.45;100.00;101083.22;4931666;29;20067;-79
2023/02/25 10:52:55;;;;;;;12.20;2.78;;;;;;;5.58;100.00;101092.94;4929953;29;20791;-79
2023/02/25 10:55:51;;;;;;;11.50;3.03;;;;;;;5.77;100.00;101103.13;4924914;29;20051;-79
2023/02/25 10:58:35;;;;;;;5.82;1.90;;;;;;;5.87;100.00;101097.31;4927119;28;20040;-78
2023/02/25 11:01:15;;;;;;;6.43;2.15;;;;;;;5.99;100.00;101103.56;4945823;28;20042;-79
2023/02/25 11:04:01;;;;;;;9.63;2.50;;;;;;;6.19;100.00;101112.81;4969996;28;20031;-78
2023/02/25 11:06:28;;;;;;;;;;;;;;;6.14;100.00;101114.88;4953811;28;20031;-78
2023/02/25 11:08:57;;;;;;;3.05;1.65;;;;;;;5.97;100.00;101122.03;4971661;28;20388;-78
2023/02/25 11:11:28;;;;;;;10.07;1.70;;;;;;;6.00;100.00;101113.13;4949644;28;20373;-78
2023/02/25 11:14:13;;;;;;;8.43;1.27;;;;;;;6.14;100.00;101110.47;4951483;28;20130;-80
2023/02/25 11:16:42;;;;;;;1.20;0.73;;;;;;;5.77;100.00;101126.75;4939342;28;20132;-80
2023/02/25 11:19:26;;;;;;;6.35;1.70;;;;;;;6.00;100.00;101118.38;4974934;28;20111;-78
2023/02/25 11:21:53;;;;;;;5.30;2.17;;;;;;;6.30;100.00;101125.25;4953717;28;20050;-79
2023/02/25 11:24:32;;;;;;;5.97;1.10;;;;;;;6.31;100.00;101119.88;4974548;28;20095;-80
2023/02/25 11:27:00;;;;;;;10.85;1.65;;;;;;;6.44;100.00;101122.56;4964416;28;20034;-79
2023/02/25 11:29:42;;;;;;;4.15;1.50;;;;;;;6.56;100.00;101131.41;4974577;28;20050;-80
2023/02/25 11:32:11;;;;;;;2.53;1.30;;;;;;;6.80;100.00;101117.59;4970760;28;20502;-79
2023/02/25 11:35:08;;;;;;;4.28;0.52;;;;;;;6.41;100.00;101120.13;4966261;28;20073;-79